Terminal Aerodrome Forecast
Issued by NWS

Home | Current Version | Previous Version | Text Only | Print | Product List | Glossary On
Versions: 1 2 3 4 5 6 7 8 9 10 11
454
FTUS42 KMLB 282320
TAFLEE
TAF
KLEE 282320Z 2900/2924 29008KT P6SM FEW050 SCT250
     FM290200 VRB03KT P6SM SCT250
     FM292100 09006KT P6SM VCSH SCT045 BKN100
     FM292200 09007KT P6SM SCT100=

USA.gov is the U.S. government's official web portal to all federal, state and local government web resources and services.